Airfield :
LOGIN :

Register | Disclaimer

   EN    FR    IT 

 










Legend :    VFR   Marginal VFR   IFR   Intensive IFR   Very Intensive IFR
Visi :
Ceiling :
>= 8 km
>= 3000ft
5 to 8 km
1000 to 3000 ft
1500m to 5 km
500 to 1000 ft
800 to 1500m
200 to 500 ft
< 800m
< 200 ft
Symbols :   Thunderstorms  Fog  Heavy snow  Heavy precipitations  Wind > 20 kt
SIGMETs :     Misc.  Thunderstorms  Icing  Turbulence  Mountain Waves  Volcanic Ashes







- Airport Elevation : 97 ft
- IATA code : EBJ


EKEB - Esbjerg

CURRENT METAR :
  • 252050Z AUTO 25004KT 0450NDV R08/1400VP1500U R26/P1500N BCFG NCD 03/03 Q1027

EXPIRED METARs :
  • 252020Z AUTO 27005KT 0100NDV R08/0900VP1500D R26/0450V1000N FG VV007 01/01 Q1028
  • 251950Z AUTO 30004KT 3100NDV BR NCD 04/03 Q1028
  • 251920Z AUTO 28003KT 1300NDV R08/P1500N R26/P1500N BR NCD 04/04 Q1028
  • 251850Z AUTO 31003KT 6000NDV NCD 05/04 Q1028
  • 251820Z AUTO 31003KT 9999NDV NCD 05/05 Q1027

TAF AMD TAF EKEB
Valid from the 25 at 21:00 until the 25 at 23:00 UTC


252055Z 2521/2523 31008KT 0100 FG SCT004
TEMPO 2521/2523 3000 BR BKN004
No reported NOTAMs for that airfield.



MET'MAP, your aeronautical weather chart ! - Copyright ORBIFLY December 2007 - Disclaimer

ORBIFLY MET'MAP TEAM :

Programming & Development : Alexandra Zaïnal
Concept & Development : Baudouin d'Aumeries
Co-Development & Prog : Marc-Olivier Méhu
Technical & hardware support : Manuel Goepfert

Contact : metmap@orbifly.com




SOURCES & CREDITS :

   NOAA